createdAt,value
2017-08-23T00:00:03.395Z,12.80
2017-08-23T00:00:07.653Z,12.65
2017-08-23T00:00:11.904Z,12.50
2017-08-23T00:00:16.151Z,12.20
2017-08-23T00:00:20.395Z,12.15
2017-08-23T00:00:24.659Z,12.00
2017-08-23T00:00:28.902Z,12.07
2017-08-23T00:00:33.156Z,12.30
2017-08-23T00:00:37.420Z,12.25
2017-08-23T00:00:41.633Z,12.10
2017-08-23T00:00:45.907Z,11.93
2017-08-23T00:00:50.144Z,11.90
2017-08-23T00:00:54.394Z,11.75
2017-08-23T00:00:58.643Z,11.70
2017-08-23T00:01:02.905Z,11.63
2017-08-23T00:01:07.167Z,12.00
2017-08-23T00:01:11.409Z,12.40
2017-08-23T00:01:15.683Z,12.67
2017-08-23T00:01:19.953Z,12.45
2017-08-23T00:01:24.196Z,12.30
2017-08-23T00:01:28.429Z,12.15
2017-08-23T00:01:32.681Z,12.10
2017-08-23T00:01:36.916Z,11.95
2017-08-23T00:01:41.170Z,11.90
2017-08-23T00:01:45.432Z,11.90
2017-08-23T00:01:49.798Z,11.83
2017-08-23T00:01:54.029Z,11.90
2017-08-23T00:01:58.295Z,12.05
2017-08-23T00:02:02.523Z,12.30
2017-08-23T00:02:06.783Z,12.20
2017-08-23T00:02:11.024Z,12.20
2017-08-23T00:02:15.263Z,11.90
2017-08-23T00:02:19.527Z,12.03
2017-08-23T00:02:23.775Z,12.20
2017-08-23T00:02:28.031Z,12.30
2017-08-23T00:02:32.284Z,12.20
2017-08-23T00:02:36.544Z,12.33
2017-08-23T00:02:40.792Z,12.50
2017-08-23T00:02:45.064Z,12.60
2017-08-23T00:02:49.327Z,12.65
2017-08-23T00:02:53.573Z,12.37
2017-08-23T00:02:57.827Z,12.20
2017-08-23T00:03:02.066Z,11.95
2017-08-23T00:03:06.309Z,11.77
2017-08-23T00:03:10.561Z,11.50
2017-08-23T00:03:14.823Z,11.70
2017-08-23T00:03:19.081Z,11.75
2017-08-23T00:03:23.352Z,11.87
2017-08-23T00:03:28.383Z,12.00
2017-08-23T00:03:32.622Z,11.93
2017-08-23T00:03:36.879Z,12.50
2017-08-23T00:03:41.135Z,12.35
2017-08-23T00:03:45.402Z,12.23
2017-08-23T00:03:49.650Z,12.10
2017-08-23T00:03:53.892Z,12.10
2017-08-23T00:03:58.417Z,12.17
2017-08-23T00:04:02.677Z,12.20
2017-08-23T00:04:07.703Z,12.40
2017-08-23T00:04:11.955Z,12.47
2017-08-23T00:04:16.219Z,12.30
2017-08-23T00:04:20.457Z,12.10
2017-08-23T00:04:24.697Z,12.05
2017-08-23T00:04:28.951Z,12.00
2017-08-23T00:04:33.223Z,11.77
2017-08-23T00:04:37.467Z,11.70
2017-08-23T00:04:41.730Z,11.55
2017-08-23T00:04:45.989Z,11.50
2017-08-23T00:04:50.245Z,11.50
2017-08-23T00:04:54.490Z,11.50
2017-08-23T00:04:58.737Z,11.50
2017-08-23T00:05:02.977Z,11.50
2017-08-23T00:05:07.218Z,11.55
2017-08-23T00:05:11.459Z,11.80
2017-08-23T00:05:15.700Z,11.90
2017-08-23T00:05:19.980Z,11.90
2017-08-23T00:05:24.232Z,11.90
2017-08-23T00:05:28.484Z,12.05
2017-08-23T00:05:32.740Z,12.40
2017-08-23T00:05:36.985Z,12.30
2017-08-23T00:05:41.233Z,12.40
2017-08-23T00:05:45.470Z,12.45
2017-08-23T00:05:49.709Z,12.40
2017-08-23T00:05:53.980Z,12.50
2017-08-23T00:05:58.228Z,12.45
2017-08-23T00:06:02.484Z,12.40
2017-08-23T00:06:06.741Z,12.43
2017-08-23T00:06:10.998Z,12.85
2017-08-23T00:06:15.248Z,12.90
2017-08-23T00:06:19.491Z,12.90
2017-08-23T00:06:23.755Z,12.87
2017-08-23T00:06:28.007Z,12.80
2017-08-23T00:06:32.258Z,12.70
2017-08-23T00:06:36.506Z,12.60
2017-08-23T00:06:40.757Z,12.50
2017-08-23T00:06:44.997Z,12.60
2017-08-23T00:06:49.256Z,12.60
2017-08-23T00:06:53.490Z,12.65
2017-08-23T00:06:57.755Z,12.60
2017-08-23T00:07:02.005Z,12.65
2017-08-23T00:07:06.245Z,12.60
2017-08-23T00:07:10.499Z,12.10
2017-08-23T00:07:14.765Z,11.90
2017-08-23T00:07:19.027Z,11.90
2017-08-23T00:07:23.284Z,11.90
2017-08-23T00:07:27.535Z,11.80
2017-08-23T00:07:31.783Z,11.90
2017-08-23T00:07:36.025Z,12.15
2017-08-23T00:07:40.281Z,12.30
2017-08-23T00:07:44.550Z,12.40
2017-08-23T00:07:48.806Z,12.60
2017-08-23T00:07:53.049Z,12.85
2017-08-23T00:07:57.294Z,13.05
2017-08-23T00:08:01.549Z,12.83
2017-08-23T00:08:05.806Z,12.35
2017-08-23T00:08:10.053Z,12.10
2017-08-23T00:08:14.300Z,12.00
2017-08-23T00:08:18.568Z,12.07
2017-08-23T00:08:22.819Z,12.15
2017-08-23T00:08:27.072Z,12.35
2017-08-23T00:08:31.334Z,12.37
2017-08-23T00:08:35.584Z,11.90
2017-08-23T00:08:39.821Z,11.90
2017-08-23T00:08:44.057Z,11.80
2017-08-23T00:08:48.309Z,11.77
2017-08-23T00:08:52.607Z,11.65
2017-08-23T00:08:57.599Z,11.55
2017-08-23T00:09:01.853Z,11.60
2017-08-23T00:09:06.085Z,11.45
2017-08-23T00:09:10.337Z,11.40
2017-08-23T00:09:14.599Z,11.60
2017-08-23T00:09:19.601Z,11.30
2017-08-23T00:09:23.871Z,11.15
2017-08-23T00:09:28.107Z,10.80
2017-08-23T00:09:32.378Z,10.95
2017-08-23T00:09:36.613Z,11.25
2017-08-23T00:09:40.867Z,11.20
2017-08-23T00:09:45.101Z,11.27
2017-08-23T00:09:49.360Z,11.20
2017-08-23T00:09:53.615Z,11.20
2017-08-23T00:09:57.857Z,11.30
2017-08-23T00:10:02.124Z,11.37
2017-08-23T00:10:06.358Z,11.50
2017-08-23T00:10:10.615Z,11.65
2017-08-23T00:10:14.875Z,11.60
2017-08-23T00:10:19.130Z,11.60
2017-08-23T00:10:23.438Z,11.60
2017-08-23T00:10:27.671Z,11.80
2017-08-23T00:10:31.924Z,11.70
2017-08-23T00:10:36.173Z,11.50
2017-08-23T00:10:40.435Z,11.50
2017-08-23T00:10:44.683Z,11.30
2017-08-23T00:10:48.928Z,11.03
2017-08-23T00:10:53.176Z,10.95
2017-08-23T00:10:57.409Z,11.00
2017-08-23T00:11:02.416Z,10.80
2017-08-23T00:11:06.653Z,11.13
2017-08-23T00:11:10.928Z,11.10
2017-08-23T00:11:15.181Z,11.20
2017-08-23T00:11:19.429Z,11.00
2017-08-23T00:11:24.421Z,11.10
2017-08-23T00:11:28.673Z,10.83
2017-08-23T00:11:32.955Z,10.67
2017-08-23T00:11:37.231Z,10.65
2017-08-23T00:11:41.445Z,10.65
2017-08-23T00:11:45.767Z,10.80
2017-08-23T00:11:49.982Z,10.95
2017-08-23T00:11:54.217Z,11.00
2017-08-23T00:11:58.458Z,11.00
2017-08-23T00:12:02.718Z,11.00
2017-08-23T00:12:06.971Z,10.30
2017-08-23T00:12:11.196Z,10.20
2017-08-23T00:12:15.448Z,10.25
2017-08-23T00:12:19.690Z,10.30
2017-08-23T00:12:23.951Z,10.30
2017-08-23T00:12:28.177Z,10.40
2017-08-23T00:12:32.415Z,10.60
2017-08-23T00:12:36.673Z,10.60
2017-08-23T00:12:40.924Z,10.55
2017-08-23T00:12:45.194Z,10.45
2017-08-23T00:12:49.433Z,10.40
2017-08-23T00:12:53.681Z,10.30
2017-08-23T00:12:57.939Z,10.30
2017-08-23T00:13:02.193Z,10.30
2017-08-23T00:13:06.421Z,10.43
2017-08-23T00:13:11.529Z,10.50
2017-08-23T00:13:15.805Z,10.70
2017-08-23T00:13:20.052Z,11.00
2017-08-23T00:13:24.289Z,11.10
2017-08-23T00:13:28.555Z,10.97
2017-08-23T00:13:32.785Z,10.70
2017-08-23T00:13:37.025Z,10.85
2017-08-23T00:13:41.267Z,10.80
2017-08-23T00:13:45.516Z,10.90
2017-08-23T00:13:49.761Z,11.15
2017-08-23T00:13:54.001Z,10.85
2017-08-23T00:13:58.259Z,10.73
2017-08-23T00:14:02.518Z,10.60
2017-08-23T00:14:06.764Z,10.60
2017-08-23T00:14:10.997Z,10.55
2017-08-23T00:14:15.243Z,10.63
2017-08-23T00:14:19.488Z,10.50
2017-08-23T00:14:23.741Z,10.60
2017-08-23T00:14:27.983Z,10.95
2017-08-23T00:14:32.239Z,11.10
2017-08-23T00:14:37.259Z,10.90
2017-08-23T00:14:41.507Z,10.63
2017-08-23T00:14:45.755Z,10.35
2017-08-23T00:14:50.003Z,10.30
2017-08-23T00:14:54.263Z,10.47
2017-08-23T00:14:59.270Z,10.60
2017-08-23T00:15:03.531Z,10.80
2017-08-23T00:15:07.771Z,10.80
2017-08-23T00:15:12.021Z,10.70
2017-08-23T00:15:16.308Z,10.70
2017-08-23T00:15:20.556Z,10.60
2017-08-23T00:15:24.785Z,10.30
2017-08-23T00:15:29.021Z,10.33
2017-08-23T00:15:33.279Z,10.40
2017-08-23T00:15:38.288Z,10.35
2017-08-23T00:15:42.535Z,10.40
2017-08-23T00:15:47.537Z,10.35
2017-08-23T00:15:51.792Z,10.57
2017-08-23T00:15:56.051Z,10.47
2017-08-23T00:16:00.279Z,10.40
2017-08-23T00:16:04.531Z,10.50
2017-08-23T00:16:08.773Z,10.70
2017-08-23T00:16:13.030Z,10.97
2017-08-23T00:16:17.280Z,11.15
2017-08-23T00:16:21.517Z,11.35
2017-08-23T00:16:25.760Z,11.50
2017-08-23T00:16:30.038Z,12.13
2017-08-23T00:16:34.271Z,12.15
2017-08-23T00:16:38.506Z,12.10
2017-08-23T00:16:42.749Z,12.23
2017-08-23T00:16:47.015Z,12.40
2017-08-23T00:16:51.267Z,12.40
2017-08-23T00:16:55.517Z,12.35
2017-08-23T00:16:59.758Z,12.40
2017-08-23T00:17:04.001Z,12.40
2017-08-23T00:17:08.236Z,12.30
2017-08-23T00:17:12.491Z,12.20
2017-08-23T00:17:16.745Z,11.83
2017-08-23T00:17:21.007Z,11.60
2017-08-23T00:17:25.260Z,11.60
2017-08-23T00:17:29.493Z,11.00
2017-08-23T00:17:33.741Z,10.80
2017-08-23T00:17:37.996Z,10.90
2017-08-23T00:17:42.997Z,10.90
2017-08-23T00:17:48.029Z,10.70
2017-08-23T00:17:52.270Z,10.60
2017-08-23T00:17:56.519Z,10.67
2017-08-23T00:18:00.773Z,10.40
2017-08-23T00:18:05.012Z,10.50
2017-08-23T00:18:09.241Z,10.55
2017-08-23T00:18:13.492Z,10.60
2017-08-23T00:18:17.739Z,10.70
2017-08-23T00:18:21.983Z,10.85
2017-08-23T00:18:26.225Z,10.80
2017-08-23T00:18:30.462Z,10.77
2017-08-23T00:18:34.715Z,11.10
2017-08-23T00:18:38.967Z,11.00
2017-08-23T00:18:43.205Z,11.10
2017-08-23T00:18:47.449Z,11.10
2017-08-23T00:18:51.705Z,11.10
2017-08-23T00:18:55.964Z,11.10
2017-08-23T00:19:00.227Z,11.25
2017-08-23T00:19:04.487Z,11.03
2017-08-23T00:19:08.721Z,11.05
2017-08-23T00:19:12.982Z,10.95
2017-08-23T00:19:17.244Z,11.00
2017-08-23T00:19:21.504Z,10.73
2017-08-23T00:19:25.734Z,10.55
2017-08-23T00:19:29.983Z,10.80
2017-08-23T00:19:34.235Z,10.83
2017-08-23T00:19:38.491Z,10.85
2017-08-23T00:19:42.725Z,10.85
2017-08-23T00:19:46.965Z,10.70
2017-08-23T00:19:51.215Z,10.60
2017-08-23T00:19:55.472Z,10.70
2017-08-23T00:19:59.717Z,11.10
2017-08-23T00:20:03.953Z,11.10
2017-08-23T00:20:08.197Z,11.37
2017-08-23T00:20:12.447Z,11.80
2017-08-23T00:20:16.679Z,12.10
2017-08-23T00:20:20.922Z,12.30
2017-08-23T00:20:25.169Z,12.37
2017-08-23T00:20:29.424Z,11.75
2017-08-23T00:20:33.667Z,11.40
2017-08-23T00:20:37.919Z,11.45
2017-08-23T00:20:42.161Z,11.93
2017-08-23T00:20:46.419Z,12.70
2017-08-23T00:20:50.653Z,12.65
2017-08-23T00:20:54.919Z,12.85
2017-08-23T00:20:59.183Z,12.37
2017-08-23T00:21:03.417Z,12.30
2017-08-23T00:21:07.679Z,11.95
2017-08-23T00:21:11.921Z,11.90
2017-08-23T00:21:16.195Z,11.75
2017-08-23T00:21:20.442Z,11.70
2017-08-23T00:21:24.683Z,11.60
2017-08-23T00:21:28.940Z,12.17
2017-08-23T00:21:33.181Z,12.05
2017-08-23T00:21:37.442Z,11.80
2017-08-23T00:21:41.665Z,11.65
2017-08-23T00:21:45.929Z,10.53
2017-08-23T00:21:50.172Z,10.40
2017-08-23T00:21:54.415Z,10.25
2017-08-23T00:21:58.663Z,10.30
2017-08-23T00:22:02.922Z,10.77
2017-08-23T00:22:07.163Z,10.70
2017-08-23T00:22:11.407Z,10.60
2017-08-23T00:22:16.415Z,10.50
2017-08-23T00:22:20.652Z,10.63
2017-08-23T00:22:24.911Z,10.80
2017-08-23T00:22:29.140Z,10.40
2017-08-23T00:22:33.387Z,10.40
2017-08-23T00:22:38.415Z,10.50
2017-08-23T00:22:42.663Z,10.43
2017-08-23T00:22:46.919Z,10.40
2017-08-23T00:22:51.190Z,10.55
2017-08-23T00:22:55.422Z,10.70
2017-08-23T00:22:59.680Z,10.40
2017-08-23T00:23:03.935Z,10.20
2017-08-23T00:23:08.178Z,10.20
2017-08-23T00:23:12.423Z,10.40
2017-08-23T00:23:16.675Z,10.63
2017-08-23T00:23:20.915Z,10.65
2017-08-23T00:23:25.163Z,10.70
2017-08-23T00:23:29.407Z,10.70
2017-08-23T00:23:33.678Z,10.67
2017-08-23T00:23:37.921Z,10.65
2017-08-23T00:23:42.174Z,10.60
2017-08-23T00:23:46.419Z,11.05
2017-08-23T00:23:50.662Z,10.87
2017-08-23T00:23:54.912Z,10.70
2017-08-23T00:23:59.152Z,10.70
2017-08-23T00:24:03.395Z,10.80
2017-08-23T00:24:07.647Z,10.80
2017-08-23T00:24:11.902Z,10.80
2017-08-23T00:24:16.149Z,10.65
2017-08-23T00:24:20.388Z,10.63
2017-08-23T00:24:24.629Z,10.70
2017-08-23T00:24:28.869Z,10.70
2017-08-23T00:24:33.120Z,10.80
2017-08-23T00:24:37.365Z,10.70
2017-08-23T00:24:41.605Z,10.80
2017-08-23T00:24:45.855Z,10.70
2017-08-23T00:24:50.109Z,10.70
2017-08-23T00:24:54.354Z,10.67
2017-08-23T00:24:58.585Z,10.80
2017-08-23T00:25:02.831Z,10.90
2017-08-23T00:25:07.070Z,10.75
2017-08-23T00:25:11.317Z,10.50
2017-08-23T00:25:16.337Z,10.40
2017-08-23T00:25:20.573Z,10.43
2017-08-23T00:25:24.805Z,10.75
2017-08-23T00:25:29.063Z,10.60
2017-08-23T00:25:34.083Z,10.70
2017-08-23T00:25:38.339Z,10.90
2017-08-23T00:25:42.575Z,10.85
2017-08-23T00:25:46.809Z,10.90
2017-08-23T00:25:51.046Z,11.00
2017-08-23T00:25:55.311Z,11.00
2017-08-23T00:25:59.576Z,10.85
2017-08-23T00:26:03.797Z,10.80
2017-08-23T00:26:08.041Z,11.03
2017-08-23T00:26:12.296Z,11.30
2017-08-23T00:26:16.579Z,11.35
2017-08-23T00:26:20.811Z,11.30
2017-08-23T00:26:25.067Z,11.03
2017-08-23T00:26:29.306Z,11.20
2017-08-23T00:26:33.564Z,11.20
2017-08-23T00:26:37.812Z,11.25
2017-08-23T00:26:42.080Z,11.03
2017-08-23T00:26:46.331Z,11.00
2017-08-23T00:26:50.571Z,10.85
2017-08-23T00:26:54.820Z,10.70
2017-08-23T00:26:59.119Z,10.57
2017-08-23T00:27:03.371Z,10.55
2017-08-23T00:27:07.608Z,10.50
2017-08-23T00:27:11.841Z,10.40
2017-08-23T00:27:16.081Z,10.20
2017-08-23T00:27:20.319Z,10.30
2017-08-23T00:27:24.557Z,10.50
2017-08-23T00:27:28.785Z,10.37
2017-08-23T00:27:33.029Z,10.10
2017-08-23T00:27:37.280Z,10.35
2017-08-23T00:27:41.525Z,10.75
2017-08-23T00:27:45.787Z,10.93
2017-08-23T00:27:50.026Z,10.70
2017-08-23T00:27:54.291Z,10.85
2017-08-23T00:27:58.539Z,10.95
2017-08-23T00:28:02.795Z,11.10
2017-08-23T00:28:07.047Z,11.20
2017-08-23T00:28:11.296Z,11.10
2017-08-23T00:28:15.562Z,11.10
2017-08-23T00:28:19.823Z,11.13
2017-08-23T00:28:24.072Z,10.95
2017-08-23T00:28:28.318Z,11.05
2017-08-23T00:28:32.560Z,11.63
2017-08-23T00:28:36.797Z,11.35
2017-08-23T00:28:41.061Z,11.15
2017-08-23T00:28:45.285Z,11.40
2017-08-23T00:28:49.521Z,11.33
2017-08-23T00:28:53.766Z,11.75
2017-08-23T00:28:58.005Z,11.95
2017-08-23T00:29:02.237Z,12.10
2017-08-23T00:29:07.241Z,11.63
2017-08-23T00:29:11.499Z,11.80
2017-08-23T00:29:15.734Z,11.70
2017-08-23T00:29:19.980Z,11.40
2017-08-23T00:29:24.209Z,11.35
2017-08-23T00:29:28.475Z,11.57
2017-08-23T00:29:32.715Z,11.25
2017-08-23T00:29:36.963Z,10.90
2017-08-23T00:29:41.209Z,10.60
2017-08-23T00:29:45.449Z,10.20
2017-08-23T00:29:49.716Z,11.15
2017-08-23T00:29:53.979Z,10.80
2017-08-23T00:29:58.211Z,10.60
2017-08-23T00:30:02.457Z,10.30
2017-08-23T00:30:06.716Z,10.20
2017-08-23T00:30:10.964Z,10.40
2017-08-23T00:30:15.205Z,10.63
2017-08-23T00:30:19.470Z,10.75
2017-08-23T00:30:23.703Z,10.70
2017-08-23T00:30:27.951Z,10.50
2017-08-23T00:30:32.195Z,10.33
2017-08-23T00:30:36.445Z,10.40
2017-08-23T00:30:40.687Z,10.40
2017-08-23T00:30:45.217Z,10.50
2017-08-23T00:30:49.453Z,10.30
2017-08-23T00:30:53.701Z,10.45
2017-08-23T00:30:57.928Z,10.70
2017-08-23T00:31:02.199Z,10.87
2017-08-23T00:31:06.430Z,10.90
2017-08-23T00:31:10.662Z,10.80
2017-08-23T00:31:14.912Z,10.80
2017-08-23T00:31:19.159Z,10.97
2017-08-23T00:31:23.417Z,11.10
2017-08-23T00:31:27.675Z,11.10
2017-08-23T00:31:31.933Z,11.15
2017-08-23T00:31:36.176Z,11.10
2017-08-23T00:31:40.436Z,11.10
2017-08-23T00:31:44.686Z,11.10
2017-08-23T00:31:48.925Z,11.20
2017-08-23T00:31:53.195Z,11.10
2017-08-23T00:31:57.430Z,10.95
2017-08-23T00:32:01.680Z,10.95
2017-08-23T00:32:05.929Z,11.07
2017-08-23T00:32:10.972Z,11.10
2017-08-23T00:32:15.220Z,11.13
2017-08-23T00:32:19.463Z,11.10
2017-08-23T00:32:23.727Z,11.10
2017-08-23T00:32:27.983Z,10.90
2017-08-23T00:32:32.220Z,10.70
2017-08-23T00:32:36.467Z,11.05
2017-08-23T00:32:40.727Z,10.95
2017-08-23T00:32:44.987Z,10.90
2017-08-23T00:32:49.282Z,11.00
2017-08-23T00:32:53.523Z,11.05
2017-08-23T00:32:57.796Z,11.00
2017-08-23T00:33:02.049Z,11.00
2017-08-23T00:33:07.057Z,11.00
2017-08-23T00:33:11.295Z,11.10
2017-08-23T00:33:15.525Z,10.90
2017-08-23T00:33:19.777Z,10.80
2017-08-23T00:33:24.035Z,10.95
2017-08-23T00:33:28.257Z,11.30
2017-08-23T00:33:32.512Z,11.40
2017-08-23T00:33:36.771Z,11.27
2017-08-23T00:33:41.023Z,11.20
2017-08-23T00:33:45.287Z,12.70
2017-08-23T00:33:49.539Z,12.43
2017-08-23T00:33:53.807Z,12.35
2017-08-23T00:33:58.054Z,12.70
2017-08-23T00:34:02.303Z,12.70
2017-08-23T00:34:06.571Z,12.47
2017-08-23T00:34:10.809Z,12.60
2017-08-23T00:34:15.059Z,12.20
2017-08-23T00:34:20.079Z,11.80
2017-08-23T00:34:24.318Z,11.77
2017-08-23T00:34:28.570Z,11.80
2017-08-23T00:34:32.810Z,11.40
2017-08-23T00:34:37.045Z,11.20
2017-08-23T00:34:41.300Z,11.30
2017-08-23T00:34:45.563Z,10.80
2017-08-23T00:34:49.797Z,10.75
2017-08-23T00:34:54.041Z,10.75
2017-08-23T00:34:58.288Z,10.47
2017-08-23T00:35:02.529Z,10.55
2017-08-23T00:35:06.766Z,10.60
2017-08-23T00:35:11.005Z,10.40
2017-08-23T00:35:15.245Z,10.60
2017-08-23T00:35:19.515Z,10.50
2017-08-23T00:35:23.737Z,10.55
2017-08-23T00:35:27.969Z,11.40
2017-08-23T00:35:32.235Z,12.20
2017-08-23T00:35:36.483Z,12.45
2017-08-23T00:35:40.736Z,12.45
2017-08-23T00:35:44.979Z,12.60
2017-08-23T00:35:49.991Z,12.50
2017-08-23T00:35:54.989Z,11.80
2017-08-23T00:36:00.008Z,11.37
2017-08-23T00:36:04.336Z,11.10
2017-08-23T00:36:08.956Z,11.05
2017-08-23T00:36:13.980Z,10.93
2017-08-23T00:36:18.650Z,11.23
2017-08-23T00:36:22.903Z,11.15
2017-08-23T00:36:27.149Z,10.57
2017-08-23T00:36:31.397Z,10.65
2017-08-23T00:36:35.657Z,10.45
2017-08-23T00:36:39.931Z,10.45
2017-08-23T00:36:44.190Z,10.60
2017-08-23T00:36:48.421Z,11.10
2017-08-23T00:36:52.686Z,11.20
2017-08-23T00:36:56.909Z,11.43
2017-08-23T00:37:01.157Z,11.65
2017-08-23T00:37:06.169Z,11.75
2017-08-23T00:37:10.420Z,12.27
2017-08-23T00:37:14.657Z,12.80
2017-08-23T00:37:18.899Z,12.30
2017-08-23T00:37:23.137Z,12.30
2017-08-23T00:37:27.392Z,12.15
2017-08-23T00:37:31.630Z,12.00
2017-08-23T00:37:35.878Z,12.00
2017-08-23T00:37:40.122Z,11.90
2017-08-23T00:37:44.365Z,11.80
2017-08-23T00:37:48.635Z,11.95
2017-08-23T00:37:52.911Z,12.10
2017-08-23T00:37:57.167Z,11.95
2017-08-23T00:38:02.170Z,11.90
2017-08-23T00:38:06.414Z,11.95
2017-08-23T00:38:10.673Z,11.43
2017-08-23T00:38:14.936Z,11.00
2017-08-23T00:38:19.182Z,10.80
2017-08-23T00:38:23.417Z,10.70
2017-08-23T00:38:27.645Z,10.60
2017-08-23T00:38:31.899Z,10.70
2017-08-23T00:38:36.144Z,10.90
2017-08-23T00:38:40.374Z,11.00
2017-08-23T00:38:44.613Z,11.00
2017-08-23T00:38:48.853Z,10.70
2017-08-23T00:38:53.089Z,10.70
2017-08-23T00:38:57.325Z,13.30
2017-08-23T00:39:01.599Z,13.37
2017-08-23T00:39:05.853Z,13.00
2017-08-23T00:39:10.098Z,12.80
2017-08-23T00:39:14.336Z,12.50
2017-08-23T00:39:18.581Z,12.90
2017-08-23T00:39:22.836Z,13.15
2017-08-23T00:39:27.080Z,14.00
2017-08-23T00:39:31.318Z,13.85
2017-08-23T00:39:35.569Z,13.23
2017-08-23T00:39:39.817Z,13.10
2017-08-23T00:39:44.050Z,13.10
2017-08-23T00:39:48.303Z,13.30
2017-08-23T00:39:52.555Z,13.40
2017-08-23T00:39:56.809Z,10.65
2017-08-23T00:40:01.068Z,10.60
2017-08-23T00:40:05.332Z,11.80
2017-08-23T00:40:09.570Z,12.30
2017-08-23T00:40:13.810Z,12.40
2017-08-23T00:40:18.061Z,12.45
2017-08-23T00:40:22.294Z,12.53
2017-08-23T00:40:26.537Z,11.80
2017-08-23T00:40:30.776Z,11.80
2017-08-23T00:40:35.022Z,11.95
2017-08-23T00:40:39.290Z,12.10
2017-08-23T00:40:43.551Z,12.00
2017-08-23T00:40:47.785Z,11.80
2017-08-23T00:40:52.021Z,11.55
2017-08-23T00:40:56.270Z,10.40
2017-08-23T00:41:00.523Z,10.40
2017-08-23T00:41:04.750Z,9.95
2017-08-23T00:41:08.995Z,10.10
2017-08-23T00:41:13.238Z,10.33
2017-08-23T00:41:17.488Z,10.25
2017-08-23T00:41:21.726Z,10.30
2017-08-23T00:41:25.984Z,10.35
2017-08-23T00:41:30.229Z,10.60
2017-08-23T00:41:34.475Z,10.60
2017-08-23T00:41:38.724Z,10.40
2017-08-23T00:41:42.990Z,10.70
2017-08-23T00:41:47.218Z,10.80
2017-08-23T00:41:51.453Z,10.80
2017-08-23T00:41:55.689Z,10.85
2017-08-23T00:41:59.933Z,11.00
2017-08-23T00:42:04.177Z,11.00
2017-08-23T00:42:08.436Z,10.80
2017-08-23T00:42:12.669Z,10.50
2017-08-23T00:42:16.907Z,10.30
2017-08-23T00:42:22.237Z,10.15
2017-08-23T00:42:26.481Z,10.17
2017-08-23T00:42:31.637Z,9.95
2017-08-23T00:42:35.893Z,10.00
2017-08-23T00:42:40.122Z,10.45
2017-08-23T00:42:44.375Z,10.45
2017-08-23T00:42:50.243Z,10.20
2017-08-23T00:42:54.535Z,10.20
2017-08-23T00:42:58.769Z,10.23
2017-08-23T00:43:03.054Z,10.20
2017-08-23T00:43:07.257Z,9.80
2017-08-23T00:43:11.502Z,9.90
2017-08-23T00:43:15.759Z,10.33
2017-08-23T00:43:19.997Z,10.80
2017-08-23T00:43:24.251Z,10.60
2017-08-23T00:43:28.481Z,10.65
2017-08-23T00:43:32.737Z,10.70
2017-08-23T00:43:37.760Z,10.90
2017-08-23T00:43:42.012Z,10.80
2017-08-23T00:43:46.241Z,10.90
2017-08-23T00:43:50.496Z,11.05
2017-08-23T00:43:54.756Z,11.17
2017-08-23T00:43:58.992Z,12.20
2017-08-23T00:44:03.226Z,12.40
2017-08-23T00:44:07.478Z,12.55
2017-08-23T00:44:11.717Z,13.30
2017-08-23T00:44:15.971Z,13.15
2017-08-23T00:44:20.222Z,13.10
2017-08-23T00:44:24.461Z,12.53
2017-08-23T00:44:28.709Z,12.50
2017-08-23T00:44:32.968Z,13.00
2017-08-23T00:44:37.978Z,13.45
2017-08-23T00:44:42.201Z,13.80
2017-08-23T00:44:46.433Z,14.13
2017-08-23T00:44:50.688Z,13.85
2017-08-23T00:44:54.925Z,13.05
2017-08-23T00:44:59.155Z,12.60
2017-08-23T00:45:03.436Z,13.00
2017-08-23T00:45:07.673Z,12.65
2017-08-23T00:45:11.939Z,12.30
2017-08-23T00:45:16.215Z,12.35
2017-08-23T00:45:20.435Z,12.30
2017-08-23T00:45:24.690Z,12.60
2017-08-23T00:45:28.941Z,12.40
2017-08-23T00:45:33.182Z,11.70
2017-08-23T00:45:37.446Z,11.30
2017-08-23T00:45:41.691Z,11.20
2017-08-23T00:45:45.964Z,11.00
2017-08-23T00:45:50.228Z,11.27
2017-08-23T00:45:54.474Z,11.40
2017-08-23T00:45:58.718Z,11.45
2017-08-23T00:46:02.971Z,11.40
2017-08-23T00:46:07.213Z,11.27
2017-08-23T00:46:11.472Z,11.20
2017-08-23T00:46:15.723Z,11.15
2017-08-23T00:46:19.962Z,11.30
2017-08-23T00:46:24.235Z,11.20
2017-08-23T00:46:28.466Z,11.40
2017-08-23T00:46:32.714Z,11.30
2017-08-23T00:46:36.967Z,11.30
2017-08-23T00:46:41.224Z,11.90
2017-08-23T00:46:45.461Z,12.20
2017-08-23T00:46:49.706Z,11.60
2017-08-23T00:46:53.980Z,11.50
2017-08-23T00:46:58.236Z,11.90
2017-08-23T00:47:02.502Z,12.40
2017-08-23T00:47:06.759Z,12.35
2017-08-23T00:47:11.019Z,12.70
2017-08-23T00:47:15.271Z,12.20
2017-08-23T00:47:19.517Z,12.20
2017-08-23T00:47:23.767Z,12.15
2017-08-23T00:47:28.014Z,11.70
2017-08-23T00:47:38.357Z,11.30
2017-08-23T00:47:42.606Z,11.20
2017-08-23T00:47:46.851Z,11.17
2017-08-23T00:47:51.093Z,11.05
2017-08-23T00:47:55.795Z,11.05
2017-08-23T00:48:00.805Z,10.73
2017-08-23T00:48:05.055Z,10.77
2017-08-23T00:48:09.286Z,10.80
2017-08-23T00:48:13.525Z,10.80
2017-08-23T00:48:17.757Z,10.73
2017-08-23T00:48:22.002Z,10.70
2017-08-23T00:48:26.260Z,10.70
2017-08-23T00:48:31.267Z,10.75
2017-08-23T00:48:35.508Z,10.80
2017-08-23T00:48:39.767Z,10.63
2017-08-23T00:48:44.011Z,10.75
2017-08-23T00:48:48.241Z,10.80
2017-08-23T00:48:52.492Z,10.85
2017-08-23T00:48:56.776Z,10.83
2017-08-23T00:49:01.014Z,10.90
2017-08-23T00:49:05.242Z,10.80
2017-08-23T00:49:09.492Z,10.80
2017-08-23T00:49:13.754Z,10.87
2017-08-23T00:49:17.989Z,11.00
2017-08-23T00:49:22.252Z,11.10
2017-08-23T00:49:26.490Z,11.10
2017-08-23T00:49:30.759Z,11.20
2017-08-23T00:49:34.986Z,11.40
2017-08-23T00:49:39.393Z,11.40
2017-08-23T00:49:43.664Z,11.40
2017-08-23T00:49:47.926Z,11.10
2017-08-23T00:49:52.155Z,11.00
2017-08-23T00:49:56.404Z,10.93
2017-08-23T00:50:00.651Z,11.15
2017-08-23T00:50:04.877Z,11.60
2017-08-23T00:50:09.117Z,12.45
2017-08-23T00:50:13.352Z,12.77
2017-08-23T00:50:17.600Z,13.50
2017-08-23T00:50:21.841Z,13.35
2017-08-23T00:50:26.073Z,13.30
2017-08-23T00:50:30.353Z,11.70
2017-08-23T00:50:34.582Z,11.75
2017-08-23T00:50:38.848Z,11.85
2017-08-23T00:50:43.087Z,12.50
2017-08-23T00:50:47.369Z,13.03
2017-08-23T00:50:51.623Z,13.25
2017-08-23T00:50:55.861Z,13.30
2017-08-23T00:51:00.127Z,12.75
2017-08-23T00:51:04.394Z,12.47
2017-08-23T00:51:08.625Z,11.45
2017-08-23T00:51:13.625Z,11.10
2017-08-23T00:51:17.864Z,10.50
2017-08-23T00:51:22.112Z,10.57
2017-08-23T00:51:26.353Z,10.75
2017-08-23T00:51:30.611Z,10.85
2017-08-23T00:51:34.841Z,10.55
2017-08-23T00:51:39.839Z,10.50
2017-08-23T00:51:44.855Z,10.43
2017-08-23T00:51:49.107Z,10.43
2017-08-23T00:51:53.366Z,10.50
2017-08-23T00:51:57.623Z,10.55
2017-08-23T00:52:01.872Z,10.60
2017-08-23T00:52:06.118Z,10.67
2017-08-23T00:52:10.503Z,10.85
2017-08-23T00:52:14.741Z,11.10
2017-08-23T00:52:19.008Z,11.23
2017-08-23T00:52:23.241Z,11.30
2017-08-23T00:52:27.498Z,11.10
2017-08-23T00:52:31.748Z,11.10
2017-08-23T00:52:36.004Z,11.10
2017-08-23T00:52:40.251Z,11.10
2017-08-23T00:52:44.518Z,11.10
2017-08-23T00:52:48.768Z,11.05
2017-08-23T00:52:53.234Z,10.97
2017-08-23T00:52:57.496Z,10.80
2017-08-23T00:53:01.762Z,10.60
2017-08-23T00:53:06.019Z,10.60
2017-08-23T00:53:10.258Z,10.95
2017-08-23T00:53:14.513Z,10.50
2017-08-23T00:53:18.755Z,10.27
2017-08-23T00:53:23.006Z,10.30
2017-08-23T00:53:27.259Z,10.30
2017-08-23T00:53:31.505Z,10.20
2017-08-23T00:53:35.755Z,10.30
2017-08-23T00:53:40.003Z,10.70
2017-08-23T00:53:44.255Z,10.85
2017-08-23T00:53:48.497Z,10.90
2017-08-23T00:53:52.737Z,10.63
2017-08-23T00:53:56.987Z,10.70
2017-08-23T00:54:01.232Z,11.45
2017-08-23T00:54:05.462Z,12.20
2017-08-23T00:54:09.706Z,11.53
2017-08-23T00:54:13.941Z,11.10
2017-08-23T00:54:18.193Z,11.00
2017-08-23T00:54:22.443Z,10.70
2017-08-23T00:54:26.695Z,10.77
2017-08-23T00:54:30.926Z,10.90
2017-08-23T00:54:35.180Z,11.40
2017-08-23T00:54:39.413Z,10.95
2017-08-23T00:54:43.675Z,10.77
2017-08-23T00:54:47.923Z,10.75
2017-08-23T00:54:52.178Z,10.70
2017-08-23T00:54:56.424Z,10.70
2017-08-23T00:55:00.671Z,10.65
2017-08-23T00:55:05.680Z,10.40
2017-08-23T00:55:10.695Z,10.43
2017-08-23T00:55:14.925Z,10.67
2017-08-23T00:55:19.930Z,10.80
2017-08-23T00:55:24.182Z,10.87